Time;durP1;ratioP1;P1;durP2;ratioP2;P2;SDS_P1;SDS_P2;PMS_P1;PMS_P2;Temp;Humidity;BMP_temperature;BMP_pressure;BME280_temperature;BME280_humidity;BME280_pressure;Samples;Min_cycle;Max_cycle;Signal;HPM_P1;HPM_P2
2022/04/26 03:38:09;;;;;;;15.82;9.10;;;;;;;7.03;100.00;101216.59;4977932;28;20039;-77
2022/04/26 03:40:34;;;;;;;15.93;8.50;;;;;;;6.95;100.00;101209.75;4956462;28;20051;-78
2022/04/26 03:43:02;;;;;;;16.38;8.60;;;;;;;6.90;100.00;101225.47;4918777;28;20079;-78
2022/04/26 03:45:28;;;;;;;15.77;8.45;;;;;;;6.86;100.00;101212.16;4955923;28;20031;-78
2022/04/26 03:47:53;;;;;;;14.85;7.93;;;;;;;6.88;100.00;101218.38;4972491;28;20039;-78
2022/04/26 03:50:19;;;;;;;15.25;8.45;;;;;;;6.98;100.00;101214.13;4950950;29;20042;-78
2022/04/26 03:52:44;;;;;;;17.40;8.38;;;;;;;6.92;100.00;101218.09;4981027;28;20031;-78
2022/04/26 03:55:10;;;;;;;18.88;8.20;;;;;;;6.87;100.00;101222.03;4948282;28;20384;-78
2022/04/26 03:57:35;;;;;;;15.75;9.35;;;;;;;6.91;100.00;101215.47;4965380;28;20058;-78
2022/04/26 04:00:01;;;;;;;14.27;7.95;;;;;;;6.98;100.00;101222.31;4968251;28;20126;-78
2022/04/26 04:02:27;;;;;;;18.15;8.35;;;;;;;6.93;100.00;101210.81;4956742;28;20482;-78
2022/04/26 04:04:52;;;;;;;13.52;8.73;;;;;;;6.98;100.00;101222.31;4973260;28;20043;-78
2022/04/26 04:07:17;;;;;;;19.67;8.70;;;;;;;6.98;100.00;101215.03;4977823;28;20113;-78
2022/04/26 04:09:43;;;;;;;14.27;7.22;;;;;;;6.91;100.00;101210.03;4941493;29;20070;-78
2022/04/26 04:12:09;;;;;;;19.63;9.23;;;;;;;6.98;100.00;101228.66;4969050;28;20054;-78
2022/04/26 04:14:34;;;;;;;11.95;7.57;;;;;;;6.96;100.00;101229.69;4945587;28;20031;-77
2022/04/26 04:17:00;;;;;;;15.75;7.88;;;;;;;6.98;100.00;101227.75;4970588;28;20149;-77
2022/04/26 04:19:27;;;;;;;14.00;7.78;;;;;;;7.01;100.00;101230.28;4971626;28;20089;-77
2022/04/26 04:21:53;;;;;;;19.77;9.02;;;;;;;7.04;100.00;101229.25;4972999;28;20395;-77
2022/04/26 04:24:19;;;;;;;15.57;8.13;;;;;;;6.98;100.00;101238.63;4932471;28;20083;-77
2022/04/26 04:26:45;;;;;;;19.00;8.02;;;;;;;7.05;100.00;101240.06;4963968;28;20033;-77
2022/04/26 04:29:11;;;;;;;15.98;7.70;;;;;;;6.94;100.00;101234.34;4935045;28;20034;-77
2022/04/26 04:31:37;;;;;;;15.48;8.43;;;;;;;6.95;100.00;101250.59;4960007;28;20035;-77
2022/04/26 04:34:03;;;;;;;17.42;8.27;;;;;;;7.01;100.00;101243.91;4971880;28;20077;-77
2022/04/26 04:36:29;;;;;;;12.65;7.55;;;;;;;6.90;100.00;101241.78;4973681;28;20169;-77
2022/04/26 04:38:56;;;;;;;11.98;7.97;;;;;;;6.94;100.00;101247.97;4967743;28;20114;-78
2022/04/26 04:41:22;;;;;;;18.33;8.07;;;;;;;6.95;100.00;101249.69;4988743;28;20617;-78
2022/04/26 04:43:48;;;;;;;15.70;7.88;;;;;;;7.03;100.00;101251.97;4956436;28;20035;-77
2022/04/26 04:46:13;;;;;;;17.55;7.95;;;;;;;7.02;100.00;101251.13;4955181;28;20042;-77
2022/04/26 04:48:39;;;;;;;15.57;8.23;;;;;;;7.16;100.00;101259.34;4956203;28;20042;-78
2022/04/26 04:51:04;;;;;;;13.00;8.10;;;;;;;7.08;100.00;101256.19;4972772;28;20042;-77
2022/04/26 04:53:30;;;;;;;20.48;8.98;;;;;;;7.14;100.00;101255.84;4991079;28;20482;-78
2022/04/26 04:55:55;;;;;;;19.85;8.75;;;;;;;7.16;100.00;101256.63;4970765;28;20474;-78
2022/04/26 04:58:21;;;;;;;17.60;8.20;;;;;;;7.17;100.00;101266.56;4959239;28;20113;-79
2022/04/26 05:00:46;;;;;;;18.90;8.07;;;;;;;7.12;100.00;101265.94;4976556;28;20038;-77
2022/04/26 05:03:12;;;;;;;13.43;8.50;;;;;;;7.14;100.00;101271.31;4974247;28;20043;-77
2022/04/26 05:05:37;;;;;;;23.98;8.18;;;;;;;7.22;100.00;101274.47;4956328;28;20063;-78
2022/04/26 05:08:03;;;;;;;17.42;8.48;;;;;;;7.21;100.00;101282.72;4970513;28;20039;-78
2022/04/26 05:10:33;;;;;;;15.35;9.05;;;;;;;7.32;100.00;101282.97;4974070;28;20042;-78
2022/04/26 05:12:59;;;;;;;16.17;7.70;;;;;;;7.31;100.00;101292.09;4976642;28;20073;-78
2022/04/26 05:15:25;;;;;;;25.55;9.02;;;;;;;7.41;100.00;101295.16;4949307;28;20113;-77
2022/04/26 05:17:51;;;;;;;14.00;9.07;;;;;;;7.50;100.00;101287.31;4988100;28;20030;-78
2022/04/26 05:20:17;;;;;;;26.60;9.35;;;;;;;7.52;100.00;101287.22;4969196;28;20105;-78
2022/04/26 05:25:27;;;;;;;14.48;8.20;;;;;;;7.52;100.00;101296.28;4974715;28;20118;-78
2022/04/26 05:27:52;;;;;;;21.25;9.02;;;;;;;7.52;100.00;101300.84;4983964;28;20070;-78
2022/04/26 05:30:17;;;;;;;20.88;9.25;;;;;;;7.54;100.00;101297.09;4991004;28;20099;-78
2022/04/26 05:32:43;;;;;;;23.00;9.00;;;;;;;7.58;100.00;101310.53;4943269;28;20031;-79
2022/04/26 05:35:10;;;;;;;17.45;9.20;;;;;;;7.58;100.00;101303.22;4980635;28;20248;-79
2022/04/26 05:37:36;;;;;;;22.13;9.90;;;;;;;7.58;100.00;101310.53;4970295;28;20046;-79
2022/04/26 05:40:03;;;;;;;23.15;9.70;;;;;;;7.63;100.00;101302.97;4979673;28;20039;-79
2022/04/26 05:42:35;;;;;;;18.05;9.13;;;;;;;7.69;100.00;101313.47;4978179;28;20070;-79
2022/04/26 05:45:00;;;;;;;20.87;8.27;;;;;;;7.70;100.00;101315.22;4976948;28;20037;-78
2022/04/26 05:47:27;;;;;;;17.48;8.75;;;;;;;7.72;100.00;101311.47;4932816;28;20054;-77
2022/04/26 05:49:52;;;;;;;15.52;9.10;;;;;;;7.70;100.00;101318.81;4981154;28;20039;-79
2022/04/26 05:52:18;;;;;;;21.45;9.35;;;;;;;7.71;100.00;101320.59;4991424;28;20031;-79
2022/04/26 05:54:44;;;;;;;17.38;8.80;;;;;;;7.80;100.00;101327.34;4980925;28;20038;-79
2022/04/26 05:57:09;;;;;;;17.10;8.88;;;;;;;7.88;100.00;101313.25;4961090;28;20043;-79
2022/04/26 05:59:35;;;;;;;18.17;8.88;;;;;;;7.91;100.00;101315.78;4966981;28;20035;-79
2022/04/26 06:02:00;;;;;;;22.50;9.07;;;;;;;7.93;100.00;101323.88;4982188;28;20102;-79
2022/04/26 06:04:26;;;;;;;16.48;9.00;;;;;;;7.93;100.00;101326.63;4983008;28;20092;-79
2022/04/26 06:06:52;;;;;;;28.67;9.55;;;;;;;8.01;100.00;101327.88;4982695;28;20074;-79
2022/04/26 06:09:17;;;;;;;25.08;9.85;;;;;;;8.09;100.00;101336.47;4982474;28;20501;-79
2022/04/26 06:11:43;;;;;;;15.13;8.52;;;;;;;8.13;100.00;101339.03;4949927;28;20470;-79
2022/04/26 06:14:08;;;;;;;20.45;8.68;;;;;;;8.14;100.00;101332.59;4982184;28;20074;-79
2022/04/26 06:16:34;;;;;;;20.38;8.80;;;;;;;8.25;100.00;101341.00;4962432;28;20140;-79
2022/04/26 06:18:59;;;;;;;37.25;9.45;;;;;;;8.27;100.00;101339.06;4999092;28;20050;-79
2022/04/26 06:21:25;;;;;;;18.33;9.38;;;;;;;8.44;100.00;101338.94;4966479;28;20035;-79
2022/04/26 06:23:51;;;;;;;19.20;8.73;;;;;;;8.36;100.00;101338.50;4974266;28;20465;-79
2022/04/26 06:26:16;;;;;;;19.17;9.73;;;;;;;8.42;100.00;101339.97;4958062;28;20098;-79
2022/04/26 06:28:42;;;;;;;16.38;8.95;;;;;;;8.42;100.00;101342.69;4955292;28;20415;-77
2022/04/26 06:31:08;;;;;;;17.05;9.50;;;;;;;8.41;100.00;101339.09;4973779;28;20042;-77
2022/04/26 06:33:34;;;;;;;15.52;9.48;;;;;;;8.49;100.00;101348.66;4968591;28;20050;-77
2022/04/26 06:36:00;;;;;;;29.02;10.50;;;;;;;8.62;100.00;101347.81;4972577;28;20050;-78
2022/04/26 06:38:26;;;;;;;15.70;9.45;;;;;;;8.48;100.00;101355.09;4977369;28;20038;-78
2022/04/26 06:40:52;;;;;;;16.90;9.40;;;;;;;8.58;100.00;101359.88;4957509;28;20391;-76
2022/04/26 06:43:18;;;;;;;19.23;10.88;;;;;;;8.69;100.00;101359.22;4968253;28;20046;-77
2022/04/26 06:45:46;;;;;;;18.55;9.75;;;;;;;8.55;100.00;101356.47;4973042;28;20043;-76
2022/04/26 06:48:13;;;;;;;15.02;10.00;;;;;;;8.60;100.00;101363.41;4974805;28;20051;-76
2022/04/26 06:50:39;;;;;;;18.92;10.02;;;;;;;8.69;100.00;101371.97;4970347;28;20058;-77
2022/04/26 06:53:05;;;;;;;23.58;10.10;;;;;;;8.60;100.00;101357.94;4976271;28;20646;-78
2022/04/26 06:55:32;;;;;;;17.50;9.52;;;;;;;8.64;100.00;101369.53;4978965;28;20483;-78
2022/04/26 06:57:58;;;;;;;19.08;10.32;;;;;;;8.53;100.00;101359.31;4987350;28;20106;-78
2022/04/26 07:00:24;;;;;;;19.65;10.75;;;;;;;8.48;100.00;101366.91;4981874;28;20039;-78
2022/04/26 07:02:50;;;;;;;19.65;10.57;;;;;;;8.70;100.00;101365.56;4994815;28;20045;-77
2022/04/26 07:05:16;;;;;;;23.85;10.65;;;;;;;8.74;100.00;101365.28;4974889;28;20038;-77
2022/04/26 07:07:42;;;;;;;19.70;9.00;;;;;;;9.00;100.00;101363.59;4972832;28;20113;-77
2022/04/26 07:10:09;;;;;;;15.88;9.20;;;;;;;9.25;100.00;101375.66;4970110;28;20043;-77
2022/04/26 07:12:35;;;;;;;25.42;10.05;;;;;;;9.30;100.00;101367.19;4986176;28;20466;-77
2022/04/26 07:15:01;;;;;;;19.90;9.73;;;;;;;9.40;100.00;101371.06;4976768;28;20046;-78
2022/04/26 07:17:27;;;;;;;18.08;10.27;;;;;;;9.82;100.00;101371.00;4987193;28;20475;-76
2022/04/26 07:19:53;;;;;;;18.25;10.60;;;;;;;10.08;100.00;101372.84;4957581;28;20053;-77
2022/04/26 07:22:18;;;;;;;19.45;9.40;;;;;;;10.26;100.00;101380.75;4972664;28;20065;-78
2022/04/26 07:24:44;;;;;;;19.52;10.38;;;;;;;10.14;100.00;101378.88;4959218;28;20089;-77
2022/04/26 07:27:10;;;;;;;18.90;9.40;;;;;;;9.65;100.00;101383.09;4974267;28;20114;-77
2022/04/26 07:29:36;;;;;;;20.27;10.75;;;;;;;9.28;100.00;101374.56;4968213;28;20035;-77
2022/04/26 07:32:02;;;;;;;21.52;10.07;;;;;;;9.35;100.00;101390.47;4972595;28;20029;-76
2022/04/26 07:34:27;;;;;;;18.92;9.93;;;;;;;9.91;100.00;101389.53;4957006;28;20037;-76
2022/04/26 07:36:59;;;;;;;20.83;9.48;;;;;;;10.10;100.00;101386.41;4969750;28;20045;-76
2022/04/26 07:39:25;;;;;;;19.10;9.55;;;;;;;10.43;100.00;101385.97;4967810;28;20363;-77
2022/04/26 07:41:51;;;;;;;17.58;9.25;;;;;;;10.57;100.00;101397.81;4974358;28;20074;-77
2022/04/26 07:44:18;;;;;;;15.98;10.15;;;;;;;10.64;100.00;101401.84;4957661;28;20371;-77
2022/04/26 07:46:45;;;;;;;19.13;9.77;;;;;;;10.83;100.00;101406.91;4975003;28;20033;-77
2022/04/26 07:49:11;;;;;;;18.08;10.10;;;;;;;10.59;100.00;101396.72;4950635;28;20058;-78
2022/04/26 07:51:37;;;;;;;16.63;9.15;;;;;;;10.61;100.00;101410.31;4973517;28;20029;-77
2022/04/26 07:54:04;;;;;;;17.65;9.77;;;;;;;10.64;100.00;101402.75;4970505;28;20117;-77
2022/04/26 07:56:31;;;;;;;16.40;9.77;;;;;;;10.93;100.00;101401.66;4971098;28;20105;-77
2022/04/26 07:58:58;;;;;;;16.98;10.20;;;;;;;11.25;100.00;101404.81;4929326;28;20031;-78
2022/04/26 08:01:25;;;;;;;23.15;10.15;;;;;;;11.64;100.00;101410.19;4953691;28;20463;-78
2022/04/26 08:03:51;;;;;;;12.63;9.00;;;;;;;12.18;100.00;101417.13;4977842;28;20062;-78
2022/04/26 08:06:16;;;;;;;17.15;9.73;;;;;;;12.97;100.00;101412.72;4973148;28;20039;-78
2022/04/26 08:08:42;;;;;;;15.05;8.85;;;;;;;11.89;100.00;101421.06;4953595;28;20053;-77
2022/04/26 08:11:12;;;;;;;15.20;8.63;;;;;;;11.40;100.00;101419.25;4949628;28;20039;-78
2022/04/26 08:13:38;;;;;;;17.85;9.52;;;;;;;12.24;100.00;101423.00;4972635;28;20115;-77
2022/04/26 08:16:04;;;;;;;19.13;8.68;;;;;;;12.28;100.00;101421.78;4974089;28;20046;-78
2022/04/26 08:18:30;;;;;;;14.52;8.98;;;;;;;12.50;100.00;101425.63;4972870;28;20065;-78
2022/04/26 08:20:56;;;;;;;13.57;9.10;;;;;;;12.59;100.00;101426.75;4973205;28;20043;-78
2022/04/26 08:23:21;;;;;;;11.93;8.75;;;;;;;12.54;100.00;101413.38;4987126;28;20042;-78
2022/04/26 08:28:33;;;;;;;16.88;9.00;;;;;;;12.37;100.00;101425.69;4971198;28;20039;-78
2022/04/26 08:31:00;;;;;;;18.85;8.32;;;;;;;12.48;100.00;101425.72;4973715;28;20392;-77
2022/04/26 08:33:30;;;;;;;16.38;8.95;;;;;;;12.20;100.00;101432.50;4963175;28;20027;-78
2022/04/26 08:35:56;;;;;;;18.70;9.95;;;;;;;12.10;100.00;101432.31;4973152;28;20031;-78
2022/04/26 08:38:22;;;;;;;12.65;8.27;;;;;;;11.80;100.00;101432.72;4970149;28;20043;-78
2022/04/26 08:40:48;;;;;;;15.35;9.23;;;;;;;12.61;100.00;101425.66;4969181;28;20468;-78
2022/04/26 08:43:13;;;;;;;12.07;8.02;;;;;;;13.32;100.00;101436.50;4973587;28;20129;-78
2022/04/26 08:45:39;;;;;;;13.65;8.02;;;;;;;12.92;100.00;101434.22;4976678;28;20034;-77
2022/04/26 08:51:00;;;;;;;13.23;8.55;;;;;;;12.49;100.00;101435.72;4963160;28;20497;-79
2022/04/26 08:53:27;;;;;;;16.75;8.88;;;;;;;13.17;100.00;101437.75;4953402;28;20062;-79
2022/04/26 08:55:58;;;;;;;14.23;7.07;;;;;;;13.38;100.00;101433.28;4967909;28;20750;-79
2022/04/26 08:58:25;;;;;;;15.57;7.55;;;;;;;13.56;100.00;101435.47;4970894;28;20030;-79
2022/04/26 09:01:11;;;;;;;15.15;8.00;;;;;;;13.49;100.00;101439.75;4969723;28;20533;-79
2022/04/26 09:03:40;;;;;;;16.52;8.10;;;;;;;13.85;100.00;101443.22;4971703;28;20097;-79
2022/04/26 09:06:15;;;;;;;12.73;7.93;;;;;;;13.94;100.00;101435.06;4962521;28;20133;-78
2022/04/26 09:08:42;;;;;;;28.17;9.85;;;;;;;14.30;100.00;101440.34;4989244;28;20038;-78
2022/04/26 09:11:32;;;;;;;22.00;9.30;;;;;;;15.18;100.00;101435.44;4974125;28;20173;-79
2022/04/26 09:13:59;;;;;;;15.65;7.45;;;;;;;15.05;100.00;101438.41;4951061;28;20124;-78
2022/04/26 09:16:24;;;;;;;19.00;8.25;;;;;;;15.39;99.15;101436.28;4973907;28;20093;-78
2022/04/26 09:18:58;;;;;;;12.60;7.30;;;;;;;14.59;100.00;101436.94;4971203;28;20125;-78
2022/04/26 09:21:28;;;;;;;16.40;7.82;;;;;;;13.71;100.00;101450.75;4965674;28;20042;-78
2022/04/26 09:24:04;;;;;;;13.52;7.60;;;;;;;14.30;100.00;101446.72;4969129;28;20046;-78
2022/04/26 09:26:34;;;;;;;14.65;8.07;;;;;;;14.01;100.00;101457.44;4970324;28;20663;-79
2022/04/26 09:29:00;;;;;;;13.43;7.90;;;;;;;13.41;100.00;101452.28;4976297;28;20046;-78
2022/04/26 09:31:28;;;;;;;13.88;7.38;;;;;;;14.08;100.00;101455.91;4978329;28;20089;-78
2022/04/26 09:34:04;;;;;;;27.38;9.30;;;;;;;13.60;100.00;101454.38;4960424;28;20125;-79
2022/04/26 09:36:31;;;;;;;15.65;8.10;;;;;;;13.64;100.00;101466.00;4967673;28;20027;-79
2022/04/26 09:39:01;;;;;;;13.23;7.43;;;;;;;14.41;100.00;101459.53;4978626;28;20139;-80
2022/04/26 09:41:28;;;;;;;12.95;7.72;;;;;;;14.21;100.00;101472.28;4945907;28;20054;-79
2022/04/26 09:44:05;;;;;;;16.45;7.82;;;;;;;13.82;100.00;101471.00;4993717;28;20478;-78
2022/04/26 09:46:40;;;;;;;15.40;7.63;;;;;;;13.66;100.00;101485.13;4983495;28;20041;-77
2022/04/26 09:49:10;;;;;;;13.80;7.53;;;;;;;13.75;100.00;101484.38;4970293;28;20042;-78
2022/04/26 09:51:39;;;;;;;13.73;7.55;;;;;;;13.66;100.00;101491.53;4965566;28;20359;-77
2022/04/26 09:54:06;;;;;;;15.57;7.47;;;;;;;14.12;98.39;101487.69;4981554;28;20502;-77
2022/04/26 09:56:33;;;;;;;12.23;6.63;;;;;;;14.10;94.78;101495.22;4975456;28;20031;-78
2022/04/26 09:59:02;;;;;;;12.52;6.68;;;;;;;13.93;95.04;101493.00;4984977;28;20535;-78
2022/04/26 10:01:35;;;;;;;12.85;7.65;;;;;;;14.15;94.82;101498.47;4985193;28;20042;-77
2022/04/26 10:04:06;;;;;;;12.52;7.03;;;;;;;13.98;95.60;101501.75;5000277;28;20600;-78
2022/04/26 10:06:39;;;;;;;12.07;6.90;;;;;;;14.16;95.51;101504.84;4962974;28;20474;-77
2022/04/26 10:09:07;;;;;;;15.07;6.55;;;;;;;13.84;92.14;101513.91;4983160;28;20035;-78
2022/04/26 10:11:33;;;;;;;10.60;6.47;;;;;;;13.92;92.32;101502.25;4948042;28;20034;-78
2022/04/26 10:14:02;;;;;;;9.95;6.28;;;;;;;14.98;90.25;101504.28;4997468;28;20039;-78
2022/04/26 10:16:28;;;;;;;13.23;7.28;;;;;;;14.66;91.42;101490.56;4996675;28;20110;-78
2022/04/26 10:19:04;;;;;;;11.43;7.60;;;;;;;15.05;92.37;101502.75;4983050;28;20038;-78
2022/04/26 10:21:29;;;;;;;13.48;6.45;;;;;;;15.48;87.69;101503.59;4990348;28;20039;-77
2022/04/26 10:23:55;;;;;;;12.88;7.05;;;;;;;14.93;93.08;101508.47;4979091;28;20027;-78
2022/04/26 10:26:23;;;;;;;11.68;6.90;;;;;;;14.77;99.39;101500.63;4994218;28;20495;-78
2022/04/26 10:29:02;;;;;;;10.65;7.55;;;;;;;15.58;88.46;101509.16;4977114;28;20056;-78
2022/04/26 10:31:35;;;;;;;13.38;7.25;;;;;;;15.50;96.15;101504.31;4971392;28;20035;-78
2022/04/26 10:34:20;;;;;;;13.45;7.18;;;;;;;15.73;96.51;101506.88;4967768;28;20035;-78
2022/04/26 10:37:06;;;;;;;12.10;7.20;;;;;;;15.09;98.65;101508.88;4978963;28;20034;-78
2022/04/26 10:39:33;;;;;;;10.88;6.78;;;;;;;14.99;94.53;101511.56;4967616;28;20043;-77
2022/04/26 10:42:02;;;;;;;16.27;6.88;;;;;;;15.58;90.37;101510.00;4978510;28;20047;-78
2022/04/26 10:44:31;;;;;;;16.38;6.90;;;;;;;15.83;83.13;101509.72;4989546;28;20026;-78
2022/04/26 10:47:03;;;;;;;11.10;6.45;;;;;;;16.24;84.14;101516.94;4980403;28;20053;-78
2022/04/26 10:49:38;;;;;;;10.50;6.38;;;;;;;15.60;87.08;101507.97;4955974;28;20035;-78
2022/04/26 10:52:19;;;;;;;9.52;5.90;;;;;;;15.60;82.54;101523.69;4981166;28;20109;-78
2022/04/26 10:55:01;;;;;;;15.13;6.50;;;;;;;14.49;88.56;101503.88;4964580;28;20493;-78
2022/04/26 10:57:42;;;;;;;10.15;6.55;;;;;;;15.40;84.94;101511.66;4981389;28;20050;-77
2022/04/26 11:00:12;;;;;;;9.18;5.22;;;;;;;15.41;79.08;101518.91;4962583;28;20046;-77
2022/04/26 11:02:48;;;;;;;11.20;5.45;;;;;;;15.36;82.34;101502.78;4982014;28;20042;-77
2022/04/26 11:05:17;;;;;;;10.85;4.95;;;;;;;15.18;81.21;101508.06;4966841;28;20050;-78
2022/04/26 11:07:46;;;;;;;12.98;5.57;;;;;;;15.48;79.62;101499.91;4964338;28;20047;-77
2022/04/26 11:10:18;;;;;;;10.90;5.22;;;;;;;15.28;81.94;101494.28;4980488;28;20035;-77
2022/04/26 11:12:43;;;;;;;9.48;5.68;;;;;;;14.72;81.81;101516.72;4969921;28;20031;-77
2022/04/26 11:15:20;;;;;;;15.20;6.28;;;;;;;14.78;81.92;101511.53;4979838;28;20043;-76
2022/04/26 11:17:49;;;;;;;8.35;5.15;;;;;;;14.62;83.98;101516.63;4979521;28;20045;-78
2022/04/26 11:20:18;;;;;;;9.13;5.53;;;;;;;14.72;86.92;101517.56;4962766;28;20121;-78
2022/04/26 11:22:48;;;;;;;12.48;5.43;;;;;;;14.52;85.59;101519.25;4955971;28;20074;-77
2022/04/26 11:28:06;;;;;;;14.52;5.47;;;;;;;14.41;83.44;101511.88;4968515;28;20498;-77
2022/04/26 11:30:33;;;;;;;;;;;;;;;14.51;80.77;101517.50;4986941;28;20066;-77
2022/04/26 11:33:01;;;;;;;8.93;5.32;;;;;;;14.58;80.14;101515.13;4993601;28;20286;-77
2022/04/26 11:35:28;;;;;;;12.23;5.50;;;;;;;14.61;82.73;101528.63;4978447;28;20040;-77
2022/04/26 11:38:02;;;;;;;9.57;5.10;;;;;;;14.66;82.19;101521.75;4974096;28;20078;-78
2022/04/26 11:40:36;;;;;;;12.85;5.70;;;;;;;14.44;83.02;101525.41;4981107;28;20038;-77
2022/04/26 11:43:11;;;;;;;15.63;6.03;;;;;;;14.32;85.03;101527.34;4993391;28;20037;-77
2022/04/26 11:45:38;;;;;;;13.07;5.45;;;;;;;14.52;85.96;101519.25;4995606;28;20027;-77
2022/04/26 11:48:08;;;;;;;12.75;5.38;;;;;;;14.90;83.05;101531.66;4979584;28;20053;-77
2022/04/26 11:50:33;;;;;;;7.95;5.07;;;;;;;15.12;80.47;101532.53;4978612;28;20460;-77
2022/04/26 11:53:05;;;;;;;12.23;5.32;;;;;;;14.92;82.34;101529.66;4977030;28;20034;-77
2022/04/26 11:56:00;;;;;;;11.63;5.18;;;;;;;14.66;83.20;101534.66;4982094;28;20078;-77
2022/04/26 11:58:43;;;;;;;10.80;5.90;;;;;;;14.79;85.93;101527.09;4961454;28;20462;-78
2022/04/26 12:01:17;;;;;;;10.23;5.40;;;;;;;14.86;85.17;101541.22;4989636;28;20038;-78
2022/04/26 12:03:52;;;;;;;15.68;5.05;;;;;;;14.98;85.19;101534.63;4977772;28;20082;-79
2022/04/26 12:06:32;;;;;;;12.48;5.90;;;;;;;14.71;83.92;101535.13;4974763;28;20034;-77
2022/04/26 12:09:03;;;;;;;8.45;4.70;;;;;;;14.91;84.43;101533.41;4982753;28;20045;-78
2022/04/26 12:11:32;;;;;;;9.70;4.75;;;;;;;14.71;82.76;101540.66;4962618;28;20018;-78
2022/04/26 12:14:01;;;;;;;10.20;4.63;;;;;;;14.70;82.10;101536.13;4978003;28;20043;-78
2022/04/26 12:16:29;;;;;;;13.55;5.60;;;;;;;15.16;84.15;101543.16;4974668;28;20055;-78
2022/04/26 12:18:56;;;;;;;14.25;4.63;;;;;;;15.27;80.05;101545.00;4976901;28;20089;-78
2022/04/26 12:21:24;;;;;;;5.88;4.63;;;;;;;15.21;81.48;101551.91;4960211;28;20102;-78
2022/04/26 12:24:21;;;;;;;8.70;5.28;;;;;;;15.16;85.58;101543.16;4952578;28;20039;-78
2022/04/26 12:26:55;;;;;;;10.32;4.45;;;;;;;15.61;81.89;101545.63;4957352;28;20058;-78
2022/04/26 12:29:22;;;;;;;10.48;5.60;;;;;;;15.25;79.75;101553.41;4949628;28;20038;-78
2022/04/26 12:31:49;;;;;;;7.80;4.85;;;;;;;15.46;82.54;101544.22;4973379;28;20050;-78
2022/04/26 12:34:23;;;;;;;7.45;5.57;;;;;;;15.30;82.19;101552.09;4972138;28;20043;-78
2022/04/26 12:36:58;;;;;;;10.98;5.25;;;;;;;15.31;83.76;101553.88;4992039;28;20035;-79
2022/04/26 12:39:25;;;;;;;10.02;4.90;;;;;;;15.56;80.49;101553.44;4959271;28;20031;-77
2022/04/26 12:41:56;;;;;;;16.58;5.40;;;;;;;15.04;80.97;101552.53;4957019;28;20051;-78
2022/04/26 12:44:23;;;;;;;10.30;5.20;;;;;;;15.08;80.46;101548.47;4970136;28;20034;-78
2022/04/26 12:52:57;;;;;;;8.60;5.13;;;;;;;14.89;79.78;101544.56;4968088;28;20038;-77
2022/04/26 12:55:30;;;;;;;12.35;6.15;;;;;;;14.94;81.23;101557.97;4957653;28;20035;-78
2022/04/26 12:58:01;;;;;;;10.40;5.70;;;;;;;14.88;81.01;101556.59;4973269;28;20097;-77
2022/04/26 13:00:27;;;;;;;11.13;5.63;;;;;;;15.09;79.99;101550.25;4973946;28;21427;-77
2022/04/26 13:02:56;;;;;;;8.40;5.50;;;;;;;15.33;82.33;101551.84;4973525;28;20046;-78
2022/04/26 13:05:22;;;;;;;13.27;5.70;;;;;;;15.23;78.65;101555.44;4965479;28;20035;-77
2022/04/26 13:07:48;;;;;;;9.50;5.15;;;;;;;15.19;80.50;101561.34;4951382;28;20549;-77
2022/04/26 13:10:16;;;;;;;9.65;5.18;;;;;;;14.97;79.90;101551.28;4974244;28;20693;-78
2022/04/26 13:12:42;;;;;;;8.65;5.22;;;;;;;15.16;79.19;101554.19;4976074;28;20530;-78
2022/04/26 13:15:08;;;;;;;11.43;4.95;;;;;;;15.07;78.54;101557.78;4961003;28;20066;-78
2022/04/26 13:17:35;;;;;;;14.98;5.53;;;;;;;15.07;76.64;101555.03;4972898;28;20047;-78
2022/04/26 13:20:00;;;;;;;10.95;5.13;;;;;;;15.14;77.38;101556.22;4941973;28;20041;-78
2022/04/26 13:22:26;;;;;;;7.47;5.07;;;;;;;15.11;76.26;101545.44;4971842;28;20095;-79
2022/04/26 13:24:52;;;;;;;10.40;5.68;;;;;;;15.20;76.88;101554.78;4957566;28;20074;-78
2022/04/26 13:27:18;;;;;;;9.38;5.30;;;;;;;15.54;76.17;101551.81;4938971;28;20043;-78
2022/04/26 13:29:44;;;;;;;8.70;5.43;;;;;;;15.32;77.16;101558.38;4966639;28;20073;-77
2022/04/26 13:32:10;;;;;;;9.77;5.10;;;;;;;15.42;73.66;101549.13;4955821;28;20062;-77
2022/04/26 13:34:35;;;;;;;17.60;5.47;;;;;;;15.50;77.58;101542.94;4936629;28;20035;-78
2022/04/26 13:37:01;;;;;;;12.95;5.15;;;;;;;15.28;78.03;101543.09;4956407;28;20053;-80
2022/04/26 13:39:26;;;;;;;8.30;4.80;;;;;;;15.39;78.99;101549.41;4974580;28;20429;-79
2022/04/26 13:41:52;;;;;;;10.20;5.30;;;;;;;15.54;74.56;101540.78;4942477;28;20051;-79
2022/04/26 13:44:20;;;;;;;13.18;5.47;;;;;;;15.34;76.26;101553.59;4975033;28;20070;-79
2022/04/26 13:46:46;;;;;;;9.88;5.72;;;;;;;15.38;81.14;101542.16;4975172;28;20072;-78
2022/04/26 13:49:12;;;;;;;12.15;5.95;;;;;;;15.00;78.72;101548.28;4975421;28;20049;-79
2022/04/26 13:51:38;;;;;;;12.73;5.93;;;;;;;15.29;77.75;101542.97;4971037;28;20147;-80
2022/04/26 13:54:04;;;;;;;13.00;5.07;;;;;;;15.07;77.33;101549.50;4981510;28;20078;-79
2022/04/26 13:56:29;;;;;;;11.80;5.38;;;;;;;15.26;77.49;101551.50;4962500;28;20061;-79
2022/04/26 13:58:55;;;;;;;8.93;5.32;;;;;;;15.21;75.47;101551.91;4995766;28;20482;-79
2022/04/26 14:01:20;;;;;;;9.75;5.88;;;;;;;15.11;77.69;101548.22;4977103;28;20042;-79
2022/04/26 14:03:46;;;;;;;7.53;5.18;;;;;;;15.44;75.61;101540.72;4958555;29;20550;-79
2022/04/26 14:06:12;;;;;;;21.95;5.90;;;;;;;15.17;75.01;101549.56;4958995;28;20102;-79
2022/04/26 14:08:38;;;;;;;7.63;4.95;;;;;;;15.33;74.85;101547.22;4972015;28;20039;-79
2022/04/26 14:11:04;;;;;;;9.95;4.68;;;;;;;15.12;73.61;101544.47;4956575;28;20039;-79
2022/04/26 14:21:46;;;;;;;8.38;4.95;;;;;;;15.11;75.01;101556.50;4975306;28;20038;-79
2022/04/26 14:21:49;;;;;;;12.82;5.13;;;;;;;14.95;78.49;101551.41;4957998;28;20047;-78
2022/04/26 14:24:14;;;;;;;12.40;5.55;;;;;;;14.96;76.02;101550.44;4959987;28;20085;-79
2022/04/26 14:26:42;;;;;;;12.90;5.93;;;;;;;15.05;75.95;101552.41;4973568;28;20482;-82
2022/04/26 14:29:08;;;;;;;14.98;5.47;;;;;;;15.15;74.09;101555.22;4945227;28;20447;-78
2022/04/26 14:31:35;;;;;;;12.98;6.15;;;;;;;15.12;72.51;101549.97;4976797;28;20035;-79
2022/04/26 14:34:01;;;;;;;10.82;5.70;;;;;;;15.01;74.51;101558.31;4974227;28;20103;-79
2022/04/26 14:36:27;;;;;;;10.07;5.35;;;;;;;14.98;75.95;101553.91;4974690;28;20697;-79
2022/04/26 14:38:52;;;;;;;9.13;5.32;;;;;;;15.07;73.57;101558.66;4975100;28;20038;-80
2022/04/26 14:41:18;;;;;;;10.55;5.40;;;;;;;15.04;77.20;101552.53;4960820;28;20043;-78
2022/04/26 14:43:43;;;;;;;9.43;5.15;;;;;;;15.05;76.48;101551.50;4975521;28;20042;-79
2022/04/26 14:46:09;;;;;;;9.43;5.00;;;;;;;15.18;77.75;101554.97;4975354;28;20408;-78
2022/04/26 14:48:36;;;;;;;7.55;4.88;;;;;;;15.03;77.74;101548.00;4976873;28;20066;-78
2022/04/26 14:51:02;;;;;;;6.82;4.50;;;;;;;15.13;77.78;101553.59;4960666;28;20387;-78
2022/04/26 14:53:27;;;;;;;11.75;5.03;;;;;;;15.10;78.92;101551.09;4971042;28;20185;-78
2022/04/26 14:55:53;;;;;;;10.02;5.07;;;;;;;14.89;77.73;101552.84;4972830;28;20479;-78
2022/04/26 14:58:19;;;;;;;8.75;4.90;;;;;;;14.69;78.94;101556.41;4975083;28;20085;-78
2022/04/26 15:00:45;;;;;;;10.15;5.10;;;;;;;14.77;80.59;101562.16;4973445;28;20027;-78
2022/04/26 15:03:11;;;;;;;13.38;4.90;;;;;;;14.91;76.69;101557.38;4992558;28;20109;-78
2022/04/26 15:05:36;;;;;;;8.25;4.70;;;;;;;14.85;76.04;101554.09;4966135;28;20069;-78
2022/04/26 15:10:46;;;;;;;7.80;4.53;;;;;;;14.96;73.62;101544.91;4974524;28;20360;-78
2022/04/26 15:18:40;;;;;;;8.40;4.93;;;;;;;14.65;73.90;101550.31;4972610;28;20039;-76
2022/04/26 15:21:09;;;;;;;5.72;4.10;;;;;;;14.45;72.54;101554.72;4935602;28;20128;-80
2022/04/26 15:23:35;;;;;;;10.85;5.03;;;;;;;14.56;75.13;101556.59;4957090;28;20070;-78
2022/04/26 15:26:03;;;;;;;26.25;4.55;;;;;;;14.59;74.21;101545.31;4958156;28;20557;-78
2022/04/26 15:28:30;;;;;;;7.82;4.88;;;;;;;14.52;75.46;101560.59;4939299;28;20038;-80